createdAt,value
2023-05-06T00:03:15.649Z,1.33
2023-05-06T00:06:41.716Z,1.43
2023-05-06T00:10:07.706Z,3.60
2023-05-06T00:13:31.636Z,1.50
2023-05-06T00:16:55.745Z,1.47
2023-05-06T00:20:20.588Z,1.63
2023-05-06T00:23:45.746Z,1.33
2023-05-06T00:27:09.752Z,1.60
2023-05-06T00:30:33.151Z,1.40
2023-05-06T00:33:56.971Z,1.60
2023-05-06T00:37:20.801Z,1.10
2023-05-06T00:40:46.288Z,1.50
2023-05-06T00:44:10.066Z,1.37
2023-05-06T00:47:34.419Z,1.47
2023-05-06T00:50:58.317Z,1.30
2023-05-06T00:54:22.370Z,1.30
2023-05-06T00:57:49.404Z,1.60
2023-05-06T01:01:13.299Z,1.50
2023-05-06T01:04:37.448Z,1.20
2023-05-06T01:08:11.601Z,1.57
2023-05-06T01:11:42.201Z,1.30
2023-05-06T01:15:11.882Z,1.30
2023-05-06T01:18:37.093Z,1.23
2023-05-06T01:22:03.411Z,1.27
2023-05-06T01:25:30.171Z,2.93
2023-05-06T01:28:54.189Z,1.17
2023-05-06T01:32:37.714Z,1.47
2023-05-06T01:36:13.467Z,1.40
2023-05-06T01:39:37.755Z,1.23
2023-05-06T01:43:06.406Z,1.20
2023-05-06T01:46:32.097Z,1.30
2023-05-06T01:49:56.146Z,1.37
2023-05-06T01:53:20.021Z,1.30
2023-05-06T01:56:43.894Z,1.50
2023-05-06T02:00:11.078Z,1.63
2023-05-06T02:03:38.239Z,1.30
2023-05-06T02:07:01.814Z,1.70
2023-05-06T02:10:25.808Z,1.30
2023-05-06T02:13:56.303Z,1.33
2023-05-06T02:17:21.459Z,1.20
2023-05-06T02:20:45.324Z,1.37
2023-05-06T02:24:12.854Z,1.40
2023-05-06T02:27:36.649Z,1.20
2023-05-06T02:31:00.558Z,1.40
2023-05-06T02:34:25.652Z,1.50
2023-05-06T02:37:49.222Z,1.30
2023-05-06T02:41:13.099Z,1.80
2023-05-06T02:44:37.072Z,1.27
2023-05-06T02:48:00.984Z,1.33
2023-05-06T02:51:25.914Z,1.40
2023-05-06T02:54:49.764Z,1.30
2023-05-06T02:58:13.627Z,1.20
2023-05-06T03:01:37.564Z,1.50
2023-05-06T03:05:04.434Z,1.20
2023-05-06T03:08:30.207Z,2.40
2023-05-06T03:11:54.064Z,1.20
2023-05-06T03:15:18.437Z,1.40
2023-05-06T03:18:42.410Z,2.30
2023-05-06T03:22:06.683Z,1.50
2023-05-06T03:25:34.142Z,1.30
2023-05-06T03:28:58.376Z,2.20
2023-05-06T03:32:22.910Z,1.70
2023-05-06T03:35:46.875Z,3.93
2023-05-06T03:39:10.726Z,1.23
2023-05-06T03:42:37.328Z,1.30
2023-05-06T03:46:01.591Z,1.53
2023-05-06T03:49:26.100Z,1.43
2023-05-06T03:52:49.937Z,1.20
2023-05-06T03:56:13.757Z,1.30
2023-05-06T03:59:38.697Z,3.00
2023-05-06T04:03:03.943Z,2.00
2023-05-06T04:06:35.901Z,1.40
2023-05-06T04:09:59.922Z,1.53
2023-05-06T04:13:24.241Z,1.30
2023-05-06T04:16:50.557Z,1.30
2023-05-06T04:20:16.154Z,1.60
2023-05-06T04:23:40.091Z,3.53
2023-05-06T04:27:05.327Z,1.60
2023-05-06T04:30:30.144Z,1.70
2023-05-06T04:33:55.404Z,1.17
2023-05-06T04:37:22.217Z,1.17
2023-05-06T04:40:50.957Z,1.30
2023-05-06T04:44:14.911Z,1.80
2023-05-06T04:47:41.468Z,1.60
2023-05-06T04:51:06.941Z,3.00
2023-05-06T04:54:31.078Z,2.13
2023-05-06T04:57:55.079Z,1.20
2023-05-06T05:01:19.367Z,2.47
2023-05-06T05:04:43.343Z,1.60
2023-05-06T05:08:10.151Z,1.73
2023-05-06T05:11:34.320Z,1.50
2023-05-06T05:14:58.260Z,1.20
2023-05-06T05:18:22.166Z,1.40
2023-05-06T05:21:48.713Z,1.53
2023-05-06T05:25:14.445Z,1.77
2023-05-06T05:28:38.576Z,2.27
2023-05-06T05:32:02.471Z,1.33
2023-05-06T05:35:26.589Z,1.63
2023-05-06T05:38:51.857Z,1.30
2023-05-06T05:42:18.890Z,1.30
2023-05-06T05:45:43.955Z,1.50
2023-05-06T05:49:09.006Z,2.10
2023-05-06T05:52:33.283Z,1.60
2023-05-06T05:55:57.651Z,1.60
2023-05-06T05:59:23.671Z,1.90
2023-05-06T06:02:49.738Z,2.57
2023-05-06T06:06:17.258Z,1.93
2023-05-06T06:09:41.889Z,2.30
2023-05-06T06:13:06.737Z,1.67
2023-05-06T06:16:32.297Z,2.00
2023-05-06T06:19:57.248Z,2.20
2023-05-06T06:23:21.021Z,2.30
2023-05-06T06:26:44.945Z,1.53
2023-05-06T06:30:10.035Z,1.80
2023-05-06T06:33:35.277Z,1.80
2023-05-06T06:36:59.116Z,1.60
2023-05-06T06:40:23.821Z,1.57
2023-05-06T06:43:47.686Z,1.70
2023-05-06T06:47:13.570Z,1.50
2023-05-06T06:50:38.411Z,1.60
2023-05-06T06:54:03.418Z,1.50
2023-05-06T06:57:28.160Z,1.60
2023-05-06T07:00:52.067Z,2.07
2023-05-06T07:04:15.955Z,2.50
2023-05-06T07:07:40.891Z,2.00
2023-05-06T07:11:04.857Z,2.43
2023-05-06T07:14:28.889Z,1.73
2023-05-06T07:17:52.813Z,1.90
2023-05-06T07:21:16.376Z,1.30
2023-05-06T07:24:41.575Z,1.30
2023-05-06T07:28:05.756Z,1.50
2023-05-06T07:31:29.624Z,1.53
2023-05-06T07:34:53.550Z,1.73
2023-05-06T07:38:17.381Z,1.50
2023-05-06T07:41:42.173Z,1.80
2023-05-06T07:45:06.974Z,1.40
2023-05-06T07:48:31.086Z,1.50
2023-05-06T07:51:55.045Z,1.37
2023-05-06T07:55:19.305Z,1.77
2023-05-06T07:58:44.266Z,1.40
2023-05-06T08:02:08.755Z,1.33
2023-05-06T08:05:32.656Z,2.03
2023-05-06T08:08:56.579Z,1.40
2023-05-06T08:12:20.420Z,1.43
2023-05-06T08:15:45.766Z,1.80
2023-05-06T08:19:09.398Z,1.37
2023-05-06T08:22:32.994Z,1.40
2023-05-06T08:25:56.839Z,1.30
2023-05-06T08:29:20.974Z,1.70
2023-05-06T08:32:46.754Z,1.60
2023-05-06T08:36:10.697Z,1.37
2023-05-06T08:39:34.257Z,1.30
2023-05-06T08:43:00.506Z,1.40
2023-05-06T08:46:24.567Z,1.50
2023-05-06T08:49:50.213Z,1.43
2023-05-06T08:53:14.590Z,1.60
2023-05-06T08:56:39.668Z,1.33
2023-05-06T09:00:04.569Z,1.80
2023-05-06T09:03:28.710Z,1.60
2023-05-06T09:06:54.448Z,2.37
2023-05-06T09:10:19.146Z,1.40
2023-05-06T09:13:43.153Z,1.40
2023-05-06T09:17:07.222Z,2.27
2023-05-06T09:20:33.924Z,1.60
2023-05-06T09:23:59.689Z,1.30
2023-05-06T09:27:24.140Z,1.60
2023-05-06T09:30:48.517Z,1.40
2023-05-06T09:34:12.899Z,1.93
2023-05-06T09:37:36.620Z,1.30
2023-05-06T09:41:01.843Z,1.77
2023-05-06T09:44:27.426Z,1.30
2023-05-06T09:47:53.761Z,1.30
2023-05-06T09:51:18.010Z,1.50
2023-05-06T09:54:42.068Z,1.40
2023-05-06T09:58:09.006Z,1.60
2023-05-06T10:01:37.360Z,2.20
2023-05-06T10:05:05.879Z,1.83
2023-05-06T10:08:30.685Z,1.63
2023-05-06T10:11:56.160Z,1.50
2023-05-06T10:15:21.843Z,1.37
2023-05-06T10:18:49.833Z,2.00
2023-05-06T10:22:30.037Z,1.70
2023-05-06T10:25:57.464Z,1.50
2023-05-06T10:29:22.499Z,1.30
2023-05-06T10:32:49.414Z,1.40
2023-05-06T10:36:20.392Z,1.60
2023-05-06T10:39:45.506Z,2.40
2023-05-06T10:43:25.525Z,1.40
2023-05-06T10:46:59.779Z,1.87
2023-05-06T10:50:26.300Z,1.50
2023-05-06T10:54:02.469Z,1.67
2023-05-06T10:57:42.338Z,2.13
2023-05-06T11:01:06.413Z,1.60
2023-05-06T11:04:31.329Z,1.70
2023-05-06T11:08:10.456Z,1.67
2023-05-06T11:12:01.921Z,1.40
2023-05-06T11:15:28.038Z,1.40
2023-05-06T11:18:53.233Z,1.30
2023-05-06T11:22:39.712Z,3.90
2023-05-06T11:26:09.157Z,1.30
2023-05-06T11:29:33.018Z,1.67
2023-05-06T11:32:58.867Z,1.40
2023-05-06T11:36:22.947Z,1.50
2023-05-06T11:39:51.730Z,1.60
2023-05-06T11:43:17.778Z,1.60
2023-05-06T11:46:44.505Z,1.50
2023-05-06T11:50:09.612Z,1.27
2023-05-06T11:53:33.572Z,1.50
2023-05-06T11:56:58.033Z,1.40
2023-05-06T12:00:23.122Z,1.50
2023-05-06T12:03:47.648Z,1.37
2023-05-06T12:07:13.484Z,1.60
2023-05-06T12:10:37.947Z,1.30
2023-05-06T12:14:02.296Z,2.67
2023-05-06T12:17:28.170Z,1.50
2023-05-06T12:20:54.182Z,1.30
2023-05-06T12:24:29.716Z,1.40
2023-05-06T12:27:56.190Z,1.47
2023-05-06T12:31:22.371Z,1.73
2023-05-06T12:34:47.660Z,1.40
2023-05-06T12:38:12.831Z,1.70
2023-05-06T12:41:38.733Z,1.30
2023-05-06T12:45:15.410Z,1.40
2023-05-06T12:48:39.526Z,1.50
2023-05-06T12:52:09.728Z,1.40
2023-05-06T12:55:33.578Z,1.37
2023-05-06T12:58:58.884Z,1.30
2023-05-06T13:02:22.892Z,2.37
2023-05-06T13:05:49.927Z,1.50
2023-05-06T13:09:15.745Z,1.30
2023-05-06T13:12:39.301Z,1.40
2023-05-06T13:16:03.316Z,2.50
2023-05-06T13:22:55.529Z,1.53
2023-05-06T13:26:20.862Z,1.30
2023-05-06T13:29:44.472Z,1.40
2023-05-06T13:33:08.356Z,1.80
2023-05-06T13:36:32.512Z,1.40
2023-05-06T13:39:56.428Z,1.50
2023-05-06T13:43:22.360Z,1.50
2023-05-06T13:46:46.576Z,1.40
2023-05-06T13:50:11.256Z,1.30
2023-05-06T13:53:36.469Z,1.57
2023-05-06T13:57:01.423Z,1.20
2023-05-06T14:00:26.932Z,1.40
2023-05-06T14:03:51.351Z,1.50
2023-05-06T14:07:15.164Z,1.50
2023-05-06T14:10:39.358Z,1.30
2023-05-06T14:14:03.199Z,1.40
2023-05-06T14:17:28.421Z,1.30
2023-05-06T14:20:51.894Z,1.37
2023-05-06T14:24:15.737Z,1.80
2023-05-06T14:27:39.680Z,1.30
2023-05-06T14:31:03.537Z,1.60
2023-05-06T14:34:28.734Z,1.30
2023-05-06T14:37:52.690Z,1.10
2023-05-06T14:41:17.791Z,1.40
2023-05-06T14:44:43.055Z,1.40
2023-05-06T14:48:07.661Z,1.63
2023-05-06T14:51:34.399Z,1.30
2023-05-06T14:54:58.425Z,1.40
2023-05-06T14:58:22.415Z,1.20
2023-05-06T15:01:46.428Z,1.20
2023-05-06T15:05:12.019Z,1.40
2023-05-06T15:08:37.579Z,1.73
2023-05-06T15:12:01.823Z,1.30
2023-05-06T15:15:25.643Z,1.20
2023-05-06T15:18:49.507Z,1.37
2023-05-06T15:22:13.268Z,1.37
2023-05-06T15:25:38.958Z,1.30
2023-05-06T15:29:02.867Z,1.97
2023-05-06T15:32:27.022Z,1.20
2023-05-06T15:35:50.939Z,1.40
2023-05-06T15:39:14.883Z,1.40
2023-05-06T15:42:40.917Z,1.30
2023-05-06T15:46:05.084Z,1.57
2023-05-06T15:52:55.726Z,1.50
2023-05-06T15:56:21.292Z,1.20
2023-05-06T15:59:46.996Z,1.40
2023-05-06T16:03:13.000Z,1.20
2023-05-06T16:06:37.386Z,1.30
2023-05-06T16:10:01.620Z,1.40
2023-05-06T16:13:28.251Z,1.40
2023-05-06T16:16:53.588Z,1.20
2023-05-06T16:20:17.443Z,1.40
2023-05-06T16:23:41.449Z,1.20
2023-05-06T16:27:06.296Z,1.40
2023-05-06T16:30:30.279Z,1.50
2023-05-06T16:33:56.436Z,1.20
2023-05-06T16:37:20.335Z,1.40
2023-05-06T16:40:51.044Z,1.30
2023-05-06T16:44:15.070Z,1.37
2023-05-06T16:47:39.030Z,1.20
2023-05-06T16:51:04.744Z,1.30
2023-05-06T16:54:28.817Z,1.20
2023-05-06T16:57:52.703Z,1.20
2023-05-06T17:01:16.574Z,1.20
2023-05-06T17:04:40.524Z,1.20
2023-05-06T17:08:06.922Z,1.20
2023-05-06T17:11:31.222Z,1.80
2023-05-06T17:14:54.968Z,1.40
2023-05-06T17:18:18.712Z,1.30
2023-05-06T17:21:42.728Z,1.80
2023-05-06T17:25:08.905Z,1.97
2023-05-06T17:28:32.683Z,1.30
2023-05-06T17:31:56.479Z,1.57
2023-05-06T17:35:20.803Z,1.60
2023-05-06T17:38:44.708Z,1.30
2023-05-06T17:42:10.214Z,1.70
2023-05-06T17:45:34.049Z,1.20
2023-05-06T17:48:57.925Z,1.20
2023-05-06T17:52:21.820Z,1.20
2023-05-06T17:55:45.651Z,1.67
2023-05-06T17:59:11.325Z,1.30
2023-05-06T18:02:35.580Z,1.30
2023-05-06T18:05:59.887Z,1.20
2023-05-06T18:09:23.773Z,1.33
2023-05-06T18:12:47.969Z,1.30
2023-05-06T18:16:13.203Z,1.20
2023-05-06T18:19:37.233Z,1.30
2023-05-06T18:23:01.028Z,1.40
2023-05-06T18:26:39.901Z,1.73
2023-05-06T18:30:08.062Z,1.37
2023-05-06T18:33:33.777Z,1.33
2023-05-06T18:36:57.926Z,1.20
2023-05-06T18:40:22.104Z,1.40
2023-05-06T18:43:45.894Z,1.43
2023-05-06T18:47:09.799Z,1.60
2023-05-06T18:50:36.211Z,1.20
2023-05-06T18:54:00.191Z,1.40
2023-05-06T18:57:26.387Z,1.40
2023-05-06T19:00:50.238Z,1.30
2023-05-06T19:04:14.220Z,1.17
2023-05-06T19:07:39.018Z,1.30
2023-05-06T19:11:03.555Z,1.40
2023-05-06T19:14:27.395Z,1.60
2023-05-06T19:17:51.264Z,1.50
2023-05-06T19:21:15.635Z,1.30
2023-05-06T19:24:40.792Z,1.33
2023-05-06T19:28:05.625Z,1.73
2023-05-06T19:31:29.539Z,1.60
2023-05-06T19:34:53.383Z,1.30
2023-05-06T19:38:17.210Z,2.20
2023-05-06T19:41:42.654Z,1.40
2023-05-06T19:45:11.618Z,1.40
2023-05-06T19:48:36.892Z,1.60
2023-05-06T19:52:01.110Z,1.33
2023-05-06T19:55:25.267Z,1.70
2023-05-06T19:58:51.932Z,1.57
2023-05-06T20:02:17.671Z,3.70
2023-05-06T20:05:42.337Z,6.53
2023-05-06T20:09:06.235Z,9.93
2023-05-06T20:12:30.308Z,7.10
2023-05-06T20:15:57.273Z,6.17
2023-05-06T20:19:23.843Z,7.90
2023-05-06T20:22:47.688Z,5.00
2023-05-06T20:26:11.654Z,4.27
2023-05-06T20:29:35.666Z,2.70
2023-05-06T20:33:01.109Z,2.20
2023-05-06T20:36:26.930Z,2.00
2023-05-06T20:39:50.872Z,2.33
2023-05-06T20:43:14.509Z,2.50
2023-05-06T20:46:38.324Z,3.37
2023-05-06T20:50:03.613Z,2.23
2023-05-06T20:53:27.902Z,2.77
2023-05-06T20:56:51.708Z,1.70
2023-05-06T21:00:16.030Z,1.90
2023-05-06T21:03:39.932Z,1.40
2023-05-06T21:07:05.134Z,1.93
2023-05-06T21:10:29.056Z,1.80
2023-05-06T21:13:52.944Z,1.50
2023-05-06T21:17:16.922Z,1.90
2023-05-06T21:20:40.888Z,1.73
2023-05-06T21:24:06.622Z,1.40
2023-05-06T21:27:30.452Z,2.63
2023-05-06T21:30:54.305Z,2.93
2023-05-06T21:34:18.146Z,2.60
2023-05-06T21:37:41.978Z,1.80
2023-05-06T21:41:07.399Z,1.40
2023-05-06T21:44:31.264Z,1.57
2023-05-06T21:47:55.302Z,1.40
2023-05-06T21:51:19.250Z,2.07
2023-05-06T21:54:43.154Z,1.50
2023-05-06T21:58:08.358Z,1.80
2023-05-06T22:01:32.279Z,2.40
2023-05-06T22:04:56.447Z,1.37
2023-05-06T22:08:20.419Z,1.90
2023-05-06T22:11:44.228Z,1.40
2023-05-06T22:15:10.561Z,1.50
2023-05-06T22:18:36.047Z,1.30
2023-05-06T22:21:59.606Z,1.50
2023-05-06T22:25:23.692Z,1.90
2023-05-06T22:28:47.508Z,2.10
2023-05-06T22:32:12.790Z,2.80
2023-05-06T22:35:36.631Z,2.27
2023-05-06T22:39:00.361Z,3.47
2023-05-06T22:42:24.745Z,2.40
2023-05-06T22:45:48.210Z,2.00
2023-05-06T22:49:14.468Z,1.57
2023-05-06T22:52:38.913Z,2.10
2023-05-06T22:56:02.742Z,1.70
2023-05-06T22:59:26.510Z,1.50
2023-05-06T23:02:50.235Z,4.37
2023-05-06T23:06:15.399Z,1.57
2023-05-06T23:09:38.857Z,2.50
2023-05-06T23:13:03.311Z,1.90
2023-05-06T23:16:29.388Z,3.10
2023-05-06T23:19:53.254Z,1.60
2023-05-06T23:23:18.388Z,1.63
2023-05-06T23:26:42.139Z,3.10
2023-05-06T23:30:07.076Z,2.43
2023-05-06T23:33:30.926Z,1.60
2023-05-06T23:36:54.813Z,1.87
2023-05-06T23:40:19.938Z,1.90
2023-05-06T23:43:43.794Z,1.80
2023-05-06T23:47:07.654Z,3.23
2023-05-06T23:50:31.426Z,1.70
2023-05-06T23:53:55.208Z,1.87
2023-05-06T23:57:20.779Z,1.63
